createdAt,value
2019-02-14T00:01:15.940Z,13.50
2019-02-14T00:03:45.400Z,13.60
2019-02-14T00:06:15.160Z,13.50
2019-02-14T00:08:44.681Z,13.50
2019-02-14T00:11:14.161Z,13.60
2019-02-14T00:13:43.671Z,13.50
2019-02-14T00:16:16.255Z,13.50
2019-02-14T00:18:45.738Z,13.50
2019-02-14T00:21:15.308Z,13.50
2019-02-14T00:23:44.757Z,13.50
2019-02-14T00:26:14.573Z,13.50
2019-02-14T00:28:44.400Z,13.50
2019-02-14T00:31:14.257Z,13.50
2019-02-14T00:33:43.642Z,13.50
2019-02-14T00:36:13.170Z,13.40
2019-02-14T00:38:42.679Z,13.40
2019-02-14T00:41:12.208Z,13.40
2019-02-14T00:43:41.767Z,13.40
2019-02-14T00:46:11.270Z,13.40
2019-02-14T00:48:40.777Z,13.40
2019-02-14T00:51:10.326Z,13.30
2019-02-14T00:53:39.905Z,13.40
2019-02-14T00:56:09.387Z,13.40
2019-02-14T00:58:38.825Z,13.40
2019-02-14T01:01:08.336Z,13.40
2019-02-14T01:03:37.865Z,13.40
2019-02-14T01:06:07.327Z,13.40
2019-02-14T01:08:36.824Z,13.40
2019-02-14T01:11:06.356Z,13.40
2019-02-14T01:13:35.864Z,13.40
2019-02-14T01:16:05.301Z,13.30
2019-02-14T01:18:34.776Z,13.30
2019-02-14T01:21:04.279Z,13.40
2019-02-14T01:23:33.742Z,13.30
2019-02-14T01:26:03.258Z,13.30
2019-02-14T01:28:33.374Z,13.30
2019-02-14T01:31:02.867Z,13.30
2019-02-14T01:33:32.380Z,13.30
2019-02-14T01:36:01.868Z,13.30
2019-02-14T01:38:31.413Z,13.30
2019-02-14T01:41:00.853Z,13.20
2019-02-14T01:43:30.293Z,13.20
2019-02-14T01:45:59.830Z,13.30
2019-02-14T01:48:29.325Z,13.20
2019-02-14T01:50:58.827Z,13.30
2019-02-14T01:53:28.330Z,13.30
2019-02-14T01:55:57.835Z,13.30
2019-02-14T01:58:27.372Z,13.20
2019-02-14T02:00:56.844Z,13.20
2019-02-14T02:03:26.380Z,13.20
2019-02-14T02:05:55.866Z,13.20
2019-02-14T02:08:25.369Z,13.20
2019-02-14T02:10:54.844Z,13.20
2019-02-14T02:13:24.390Z,13.20
2019-02-14T02:15:53.865Z,13.20
2019-02-14T02:18:23.647Z,13.20
2019-02-14T02:20:53.183Z,13.20
2019-02-14T02:23:22.601Z,13.10
2019-02-14T02:25:52.106Z,13.20
2019-02-14T02:28:21.587Z,13.20
2019-02-14T02:30:51.115Z,13.10
2019-02-14T02:33:20.770Z,13.10
2019-02-14T02:35:50.319Z,13.10
2019-02-14T02:38:19.795Z,13.10
2019-02-14T02:40:49.300Z,13.10
2019-02-14T02:43:18.756Z,13.20
2019-02-14T02:45:48.241Z,13.10
2019-02-14T02:48:17.725Z,13.00
2019-02-14T02:50:47.229Z,13.10
2019-02-14T02:53:16.733Z,13.10
2019-02-14T02:55:46.205Z,13.10
2019-02-14T02:58:15.775Z,13.00
2019-02-14T03:00:45.312Z,13.10
2019-02-14T03:03:14.799Z,13.10
2019-02-14T03:05:44.340Z,13.00
2019-02-14T03:08:13.789Z,13.00
2019-02-14T03:10:43.261Z,13.10
2019-02-14T03:13:12.769Z,13.10
2019-02-14T03:15:42.287Z,13.10
2019-02-14T03:18:11.734Z,13.10
2019-02-14T03:20:41.315Z,13.00
2019-02-14T03:23:11.079Z,13.10
2019-02-14T03:25:40.591Z,13.00
2019-02-14T03:28:10.195Z,13.10
2019-02-14T03:30:39.694Z,13.00
2019-02-14T03:33:09.185Z,13.00
2019-02-14T03:35:38.676Z,13.10
2019-02-14T03:38:08.177Z,13.10
2019-02-14T03:40:37.681Z,13.00
2019-02-14T03:43:07.240Z,13.00
2019-02-14T03:45:36.690Z,13.00
2019-02-14T03:48:06.246Z,13.10
2019-02-14T03:50:35.801Z,13.00
2019-02-14T03:53:05.327Z,13.00
2019-02-14T03:55:35.192Z,12.90
2019-02-14T03:58:04.693Z,13.00
2019-02-14T04:00:34.275Z,13.00
2019-02-14T04:03:03.789Z,13.00
2019-02-14T04:05:33.300Z,12.90
2019-02-14T04:08:02.818Z,13.00
2019-02-14T04:10:32.595Z,13.00
2019-02-14T04:13:02.134Z,12.90
2019-02-14T04:15:31.675Z,12.90
2019-02-14T04:18:01.267Z,13.00
2019-02-14T04:20:30.786Z,12.90
2019-02-14T04:23:00.292Z,12.90
2019-02-14T04:25:29.777Z,12.90
2019-02-14T04:27:59.614Z,12.90
2019-02-14T04:30:29.133Z,12.80
2019-02-14T04:32:58.661Z,12.90
2019-02-14T04:35:28.342Z,12.80
2019-02-14T04:37:57.980Z,12.90
2019-02-14T04:40:33.446Z,12.90
2019-02-14T04:42:58.746Z,12.90
2019-02-14T04:45:28.233Z,12.90
2019-02-14T04:47:57.838Z,12.90
2019-02-14T04:50:27.385Z,12.90
2019-02-14T04:52:56.830Z,12.90
2019-02-14T04:55:26.357Z,12.90
2019-02-14T04:57:55.870Z,12.90
2019-02-14T05:00:25.585Z,12.90
2019-02-14T05:02:55.124Z,12.90
2019-02-14T05:05:24.743Z,12.90
2019-02-14T05:07:54.273Z,12.90
2019-02-14T05:10:23.781Z,12.80
2019-02-14T05:12:53.308Z,12.80
2019-02-14T05:15:22.912Z,12.90
2019-02-14T05:17:52.377Z,12.90
2019-02-14T05:20:21.861Z,12.80
2019-02-14T05:22:51.378Z,12.90
2019-02-14T05:25:21.020Z,12.90
2019-02-14T05:27:50.513Z,12.90
2019-02-14T05:30:19.994Z,12.80
2019-02-14T05:32:49.515Z,12.90
2019-02-14T05:35:19.151Z,12.80
2019-02-14T05:37:48.624Z,12.80
2019-02-14T05:40:18.544Z,12.80
2019-02-14T05:42:48.097Z,12.80
2019-02-14T05:45:17.689Z,12.80
2019-02-14T05:47:47.292Z,12.90
2019-02-14T05:50:16.905Z,12.80
2019-02-14T05:52:46.844Z,12.80
2019-02-14T05:55:16.326Z,12.80
2019-02-14T05:57:45.806Z,12.80
2019-02-14T06:00:15.608Z,12.70
2019-02-14T06:02:45.114Z,12.70
2019-02-14T06:05:14.633Z,12.70
2019-02-14T06:07:44.718Z,12.80
2019-02-14T06:10:14.204Z,12.70
2019-02-14T06:12:43.917Z,12.80
2019-02-14T06:15:13.401Z,12.70
2019-02-14T06:17:42.830Z,12.80
2019-02-14T06:20:12.430Z,12.80
2019-02-14T06:22:41.950Z,12.80
2019-02-14T06:25:11.449Z,12.70
2019-02-14T06:27:40.946Z,12.80
2019-02-14T06:30:12.142Z,12.70
2019-02-14T06:32:42.004Z,12.80
2019-02-14T06:35:11.675Z,12.70
2019-02-14T06:37:41.201Z,12.70
2019-02-14T06:40:11.481Z,12.70
2019-02-14T06:42:41.048Z,12.70
2019-02-14T06:45:12.167Z,12.80
2019-02-14T06:47:41.963Z,12.70
2019-02-14T06:50:11.518Z,12.70
2019-02-14T06:52:41.072Z,12.70
2019-02-14T06:55:10.784Z,12.70
2019-02-14T06:57:43.120Z,12.70
2019-02-14T07:00:14.546Z,12.70
2019-02-14T07:02:44.381Z,12.60
2019-02-14T07:05:13.910Z,12.70
2019-02-14T07:07:43.756Z,12.70
2019-02-14T07:10:16.603Z,12.70
2019-02-14T07:12:46.102Z,12.60
2019-02-14T07:15:15.677Z,12.70
2019-02-14T07:17:45.250Z,12.60
2019-02-14T07:20:15.179Z,12.60
2019-02-14T07:22:44.707Z,12.60
2019-02-14T07:25:14.232Z,12.70
2019-02-14T07:27:43.767Z,12.70
2019-02-14T07:30:17.854Z,12.70
2019-02-14T07:32:47.381Z,12.70
2019-02-14T07:35:16.901Z,12.70
2019-02-14T07:37:46.444Z,12.60
2019-02-14T07:40:15.927Z,12.70
2019-02-14T07:42:45.484Z,12.70
2019-02-14T07:45:15.142Z,12.60
2019-02-14T07:47:44.673Z,12.60
2019-02-14T07:50:14.143Z,12.70
2019-02-14T07:52:43.662Z,12.70
2019-02-14T07:55:13.696Z,12.60
2019-02-14T07:57:43.210Z,12.70
2019-02-14T08:00:13.483Z,12.60
2019-02-14T08:02:42.987Z,12.70
2019-02-14T08:05:12.522Z,12.50
2019-02-14T08:07:42.065Z,12.60
2019-02-14T08:10:12.620Z,12.60
2019-02-14T08:12:42.153Z,12.60
2019-02-14T08:15:12.924Z,12.60
2019-02-14T08:17:42.401Z,12.60
2019-02-14T08:20:12.213Z,12.60
2019-02-14T08:22:42.026Z,12.60
2019-02-14T08:25:12.081Z,12.70
2019-02-14T08:27:41.619Z,12.70
2019-02-14T08:30:13.053Z,12.70
2019-02-14T08:32:42.594Z,12.70
2019-02-14T08:35:12.046Z,12.70
2019-02-14T08:37:45.382Z,12.70
2019-02-14T08:40:15.909Z,12.70
2019-02-14T08:42:45.458Z,12.60
2019-02-14T08:45:14.842Z,12.70
2019-02-14T08:47:44.669Z,12.70
2019-02-14T08:50:14.111Z,12.70
2019-02-14T08:52:43.940Z,12.70
2019-02-14T08:55:13.502Z,12.60
2019-02-14T08:57:43.029Z,12.70
2019-02-14T09:00:13.285Z,12.70
2019-02-14T09:02:42.874Z,12.80
2019-02-14T09:05:12.775Z,12.70
2019-02-14T09:07:42.318Z,12.70
2019-02-14T09:10:12.820Z,12.70
2019-02-14T09:12:42.309Z,12.80
2019-02-14T09:15:11.888Z,12.70
2019-02-14T09:17:41.365Z,12.70
2019-02-14T09:20:12.078Z,12.70
2019-02-14T09:22:41.978Z,12.70
2019-02-14T09:25:11.543Z,12.70
2019-02-14T09:27:41.054Z,12.80
2019-02-14T09:30:10.712Z,12.70
2019-02-14T09:32:40.323Z,12.70
2019-02-14T09:35:10.020Z,12.80
2019-02-14T09:37:39.554Z,12.70
2019-02-14T09:40:10.069Z,12.80
2019-02-14T09:42:39.654Z,12.70
2019-02-14T09:45:10.189Z,12.70
2019-02-14T09:47:40.055Z,12.80
2019-02-14T09:50:10.558Z,12.70
2019-02-14T09:52:40.419Z,12.80
2019-02-14T09:55:10.486Z,12.80
2019-02-14T09:57:40.133Z,12.80
2019-02-14T10:00:12.402Z,12.80
2019-02-14T10:02:41.843Z,12.80
2019-02-14T10:05:11.619Z,13.00
2019-02-14T10:07:41.274Z,13.00
2019-02-14T10:10:13.185Z,13.50
2019-02-14T10:12:42.877Z,13.90
2019-02-14T10:15:12.575Z,14.40
2019-02-14T10:17:42.365Z,14.80
2019-02-14T10:20:13.714Z,15.30
2019-02-14T10:22:43.592Z,15.70
2019-02-14T10:25:13.352Z,16.10
2019-02-14T10:27:43.191Z,16.40
2019-02-14T10:30:15.188Z,16.70
2019-02-14T10:32:44.724Z,17.00
2019-02-14T10:35:14.304Z,17.20
2019-02-14T10:37:43.886Z,17.50
2019-02-14T10:40:14.041Z,17.70
2019-02-14T10:42:43.657Z,17.90
2019-02-14T10:45:14.983Z,18.00
2019-02-14T10:47:44.446Z,18.20
2019-02-14T10:50:13.964Z,18.30
2019-02-14T10:52:43.431Z,18.40
2019-02-14T10:55:13.452Z,18.50
2019-02-14T10:57:42.961Z,18.60
2019-02-14T11:00:18.618Z,18.70
2019-02-14T11:02:49.097Z,18.80
2019-02-14T11:05:18.745Z,19.00
2019-02-14T11:07:48.607Z,19.00
2019-02-14T11:10:18.113Z,19.20
2019-02-14T11:12:47.636Z,19.20
2019-02-14T11:15:18.746Z,19.30
2019-02-14T11:17:49.041Z,19.40
2019-02-14T11:20:18.976Z,19.40
2019-02-14T11:22:49.197Z,19.60
2019-02-14T11:25:21.929Z,19.60
2019-02-14T11:27:51.496Z,19.70
2019-02-14T11:30:21.040Z,19.80
2019-02-14T11:32:50.548Z,19.80
2019-02-14T11:35:20.048Z,19.80
2019-02-14T11:37:49.602Z,19.90
2019-02-14T11:40:19.198Z,19.90
2019-02-14T11:42:48.864Z,20.00
2019-02-14T11:45:19.090Z,20.00
2019-02-14T11:47:48.619Z,20.10
2019-02-14T11:50:18.157Z,20.20
2019-02-14T11:52:47.986Z,20.30
2019-02-14T11:55:17.433Z,20.20
2019-02-14T11:57:46.931Z,20.30
2019-02-14T12:00:23.633Z,20.40
2019-02-14T12:02:56.101Z,20.40
2019-02-14T12:05:24.696Z,20.50
2019-02-14T12:07:54.189Z,20.50
2019-02-14T12:10:23.756Z,20.60
2019-02-14T12:12:53.241Z,20.70
2019-02-14T12:15:23.385Z,20.70
2019-02-14T12:17:53.399Z,20.60
2019-02-14T12:20:22.926Z,20.70
2019-02-14T12:22:52.846Z,20.80
2019-02-14T12:25:22.439Z,20.90
2019-02-14T12:27:51.935Z,20.90
2019-02-14T12:30:21.450Z,20.90
2019-02-14T12:32:51.080Z,20.90
2019-02-14T12:35:20.639Z,21.00
2019-02-14T12:37:50.142Z,21.00
2019-02-14T12:40:19.657Z,21.10
2019-02-14T12:42:49.177Z,21.20
2019-02-14T12:45:20.475Z,21.20
2019-02-14T12:47:50.262Z,21.30
2019-02-14T12:50:19.831Z,21.20
2019-02-14T12:52:49.375Z,21.30
2019-02-14T12:55:18.863Z,21.30
2019-02-14T12:57:48.390Z,21.40
2019-02-14T13:00:19.296Z,21.30
2019-02-14T13:02:48.909Z,21.30
2019-02-14T13:05:18.452Z,21.20
2019-02-14T13:07:48.109Z,20.90
2019-02-14T13:10:17.633Z,20.50
2019-02-14T13:12:47.330Z,20.10
2019-02-14T13:15:18.638Z,19.60
2019-02-14T13:17:48.291Z,19.20
2019-02-14T13:20:17.932Z,18.50
2019-02-14T13:22:47.472Z,18.10
2019-02-14T13:25:17.028Z,17.80
2019-02-14T13:27:46.675Z,17.80
2019-02-14T13:30:18.496Z,17.40
2019-02-14T13:32:48.165Z,17.10
2019-02-14T13:35:17.598Z,16.90
2019-02-14T13:37:47.256Z,16.70
2019-02-14T13:40:17.842Z,16.80
2019-02-14T13:42:47.810Z,16.70
2019-02-14T13:45:19.015Z,16.50
2019-02-14T13:47:48.689Z,16.60
2019-02-14T13:50:18.331Z,16.40
2019-02-14T13:52:48.347Z,16.30
2019-02-14T13:55:17.878Z,16.10
2019-02-14T13:57:47.691Z,16.30
2019-02-14T14:00:19.490Z,16.20
2019-02-14T14:02:49.000Z,16.20
2019-02-14T14:05:18.569Z,16.00
2019-02-14T14:07:48.132Z,15.90
2019-02-14T14:10:17.651Z,16.00
2019-02-14T14:12:47.227Z,16.00
2019-02-14T14:15:17.076Z,15.90
2019-02-14T14:17:46.800Z,15.90
2019-02-14T14:20:16.617Z,15.90
2019-02-14T14:22:46.182Z,15.80
2019-02-14T14:25:16.646Z,15.80
2019-02-14T14:27:46.478Z,15.80
2019-02-14T14:30:16.010Z,15.70
2019-02-14T14:32:45.853Z,15.60
2019-02-14T14:35:16.290Z,15.60
2019-02-14T14:37:46.068Z,15.60
2019-02-14T14:40:15.670Z,15.60
2019-02-14T14:43:04.147Z,15.50
2019-02-14T14:45:51.394Z,15.50
2019-02-14T14:48:21.021Z,15.40
2019-02-14T14:50:51.458Z,15.40
2019-02-14T14:53:21.422Z,15.40
2019-02-14T14:55:51.194Z,15.40
2019-02-14T14:58:21.078Z,15.40
2019-02-14T15:00:50.993Z,15.30
2019-02-14T15:03:20.527Z,15.30
2019-02-14T15:05:50.016Z,15.30
2019-02-14T15:08:19.904Z,15.20
2019-02-14T15:10:49.529Z,15.10
2019-02-14T15:13:19.026Z,15.20
2019-02-14T15:15:48.538Z,15.20
2019-02-14T15:18:18.072Z,15.20
2019-02-14T15:20:47.707Z,15.20
2019-02-14T15:23:17.272Z,15.20
2019-02-14T15:25:46.860Z,15.10
2019-02-14T15:28:16.304Z,15.10
2019-02-14T15:30:45.871Z,15.10
2019-02-14T15:33:15.381Z,15.10
2019-02-14T15:35:44.915Z,15.00
2019-02-14T15:38:14.430Z,15.00
2019-02-14T15:40:43.961Z,15.00
2019-02-14T15:43:13.482Z,15.00
2019-02-14T15:45:43.078Z,14.90
2019-02-14T15:48:12.762Z,15.00
2019-02-14T15:50:42.764Z,14.90
2019-02-14T15:53:12.407Z,14.90
2019-02-14T15:55:43.827Z,14.90
2019-02-14T15:58:13.117Z,14.90
2019-02-14T16:00:42.798Z,14.80
2019-02-14T16:03:12.315Z,14.80
2019-02-14T16:05:42.668Z,14.80
2019-02-14T16:08:12.170Z,14.80
2019-02-14T16:10:41.810Z,14.80
2019-02-14T16:13:11.310Z,14.80
2019-02-14T16:15:40.823Z,14.80
2019-02-14T16:18:10.429Z,14.80
2019-02-14T16:20:41.608Z,14.70
2019-02-14T16:23:11.105Z,14.60
2019-02-14T16:25:41.703Z,14.70
2019-02-14T16:28:12.081Z,14.70
2019-02-14T16:30:42.702Z,14.70
2019-02-14T16:33:12.231Z,14.60
2019-02-14T16:35:42.021Z,14.60
2019-02-14T16:38:12.419Z,14.60
2019-02-14T16:40:42.711Z,14.60
2019-02-14T16:43:12.202Z,14.60
2019-02-14T16:45:41.725Z,14.60
2019-02-14T16:48:12.172Z,14.50
2019-02-14T16:50:42.005Z,14.50
2019-02-14T16:53:11.640Z,14.60
2019-02-14T16:55:41.184Z,14.60
2019-02-14T16:58:10.737Z,14.50
2019-02-14T17:00:40.346Z,14.50
2019-02-14T17:03:09.831Z,14.50
2019-02-14T17:05:39.612Z,14.40
2019-02-14T17:08:09.194Z,14.50
2019-02-14T17:10:38.806Z,14.40
2019-02-14T17:13:08.362Z,14.50
2019-02-14T17:16:11.226Z,14.50
2019-02-14T17:18:52.544Z,14.40
2019-02-14T17:21:33.859Z,14.10
2019-02-14T17:24:15.470Z,14.30
2019-02-14T17:26:56.754Z,14.30
2019-02-14T17:32:22.048Z,14.30
2019-02-14T17:35:03.223Z,14.30
2019-02-14T17:37:44.099Z,14.30
2019-02-14T17:40:25.336Z,14.30
2019-02-14T17:43:06.648Z,14.30
2019-02-14T17:45:48.225Z,14.20
2019-02-14T17:48:29.983Z,14.20
2019-02-14T17:51:10.921Z,14.20
2019-02-14T17:53:52.580Z,14.10
2019-02-14T17:56:34.111Z,14.10
2019-02-14T17:59:15.613Z,13.90
2019-02-14T18:01:56.970Z,14.10
2019-02-14T18:04:38.463Z,14.00
2019-02-14T18:07:21.273Z,14.10
2019-02-14T18:10:03.194Z,14.10
2019-02-14T18:12:44.166Z,14.10
2019-02-14T18:15:26.760Z,14.10
2019-02-14T18:18:07.993Z,14.10
2019-02-14T18:20:49.571Z,14.00
2019-02-14T18:23:31.017Z,14.10
2019-02-14T18:26:14.786Z,13.80
2019-02-14T18:28:56.155Z,14.00
2019-02-14T18:31:37.212Z,14.00
2019-02-14T18:34:19.326Z,14.00
2019-02-14T18:37:00.515Z,14.00
2019-02-14T18:39:41.801Z,14.00
2019-02-14T18:42:23.368Z,13.60
2019-02-14T18:45:05.166Z,14.00
2019-02-14T18:47:46.313Z,14.00
2019-02-14T18:50:27.749Z,13.90
2019-02-14T18:53:09.088Z,14.00
2019-02-14T18:55:50.642Z,14.00
2019-02-14T18:58:32.130Z,13.90
2019-02-14T19:01:14.023Z,13.80
2019-02-14T19:03:55.009Z,13.90
2019-02-14T19:06:35.803Z,13.90
2019-02-14T19:09:17.143Z,13.60
2019-02-14T19:11:58.707Z,13.80
2019-02-14T19:14:40.308Z,13.80
2019-02-14T19:17:21.862Z,13.70
2019-02-14T19:20:03.319Z,13.80
2019-02-14T19:22:44.464Z,13.80
2019-02-14T19:25:29.390Z,13.80
2019-02-14T19:28:08.693Z,13.80
2019-02-14T19:30:50.407Z,13.80
2019-02-14T19:33:32.149Z,13.80
2019-02-14T19:36:13.670Z,13.80
2019-02-14T19:38:54.997Z,13.80
2019-02-14T19:41:36.588Z,13.80
2019-02-14T19:44:18.121Z,13.80
2019-02-14T19:46:59.585Z,13.80
2019-02-14T19:49:40.832Z,13.80
2019-02-14T19:52:22.249Z,13.80
2019-02-14T19:55:03.478Z,13.30
2019-02-14T19:57:44.694Z,13.70
2019-02-14T20:00:26.190Z,13.70
2019-02-14T20:05:51.696Z,13.40
2019-02-14T20:08:33.010Z,13.30
2019-02-14T20:11:14.504Z,13.70
2019-02-14T20:13:55.813Z,13.60
2019-02-14T20:16:37.001Z,13.70
2019-02-14T20:19:18.499Z,13.70
2019-02-14T20:22:00.216Z,13.70
2019-02-14T20:24:41.457Z,13.60
2019-02-14T20:27:22.785Z,13.60
2019-02-14T20:30:03.972Z,13.60
2019-02-14T20:32:45.649Z,13.40
2019-02-14T20:35:26.921Z,13.60
2019-02-14T20:38:08.410Z,13.60
2019-02-14T20:40:48.235Z,13.60
2019-02-14T20:43:36.987Z,13.30
2019-02-14T20:49:33.024Z,13.60
2019-02-14T20:58:33.685Z,13.50
2019-02-14T21:24:52.867Z,13.50
2019-02-14T21:30:39.218Z,13.40
2019-02-14T21:33:06.690Z,13.50
2019-02-14T21:39:05.636Z,13.20
2019-02-14T21:42:20.655Z,13.40
2019-02-14T21:48:17.490Z,13.50
2019-02-14T22:00:28.824Z,13.40
2019-02-14T22:09:50.539Z,13.30
2019-02-14T22:12:53.065Z,13.30
2019-02-14T22:24:34.678Z,13.30
2019-02-14T22:33:24.845Z,13.40
2019-02-14T22:36:05.758Z,13.30
2019-02-14T22:38:47.186Z,13.30
2019-02-14T22:41:28.203Z,13.30
2019-02-14T22:44:09.807Z,13.30
2019-02-14T22:46:51.304Z,13.30
2019-02-14T22:49:32.304Z,13.30
2019-02-14T22:52:13.866Z,13.30
2019-02-14T22:54:55.385Z,13.30
2019-02-14T22:57:36.749Z,13.20
2019-02-14T23:00:17.694Z,13.30
2019-02-14T23:02:59.139Z,13.30
2019-02-14T23:05:40.702Z,12.90
2019-02-14T23:08:22.304Z,13.20
2019-02-14T23:11:04.053Z,13.30
2019-02-14T23:13:45.215Z,13.30
2019-02-14T23:16:26.958Z,13.30
2019-02-14T23:19:08.312Z,13.20
2019-02-14T23:21:49.148Z,13.20
2019-02-14T23:24:30.267Z,13.20
2019-02-14T23:27:11.706Z,13.20
2019-02-14T23:29:52.856Z,13.20
2019-02-14T23:32:34.513Z,13.20
2019-02-14T23:35:15.651Z,13.20
2019-02-14T23:37:57.037Z,13.00
2019-02-14T23:40:38.681Z,13.20
2019-02-14T23:43:20.364Z,13.20
2019-02-14T23:46:04.715Z,13.10
2019-02-14T23:48:46.395Z,12.90
2019-02-14T23:51:27.688Z,13.10
2019-02-14T23:54:08.599Z,12.90
2019-02-14T23:56:49.540Z,13.20
2019-02-14T23:59:30.298Z,13.10
